createdAt,value
2018-01-28T00:00:03.811Z,7.30
2018-01-28T00:05:05.906Z,9.30
2018-01-28T00:10:07.258Z,5.90
2018-01-28T00:15:08.650Z,7.30
2018-01-28T00:20:09.986Z,5.50
2018-01-28T00:25:12.068Z,7.83
2018-01-28T00:30:13.446Z,9.77
2018-01-28T00:35:14.755Z,9.43
2018-01-28T00:40:16.079Z,7.40
2018-01-28T00:45:18.130Z,5.70
2018-01-28T00:50:19.454Z,8.40
2018-01-28T00:55:20.803Z,8.73
2018-01-28T01:00:22.137Z,5.73
2018-01-28T01:05:23.446Z,6.37
2018-01-28T01:10:24.794Z,7.70
2018-01-28T01:15:26.120Z,5.60
2018-01-28T01:20:28.182Z,7.40
2018-01-28T01:25:29.507Z,13.50
2018-01-28T01:30:31.567Z,6.50
2018-01-28T01:35:32.901Z,8.70
2018-01-28T01:40:34.985Z,9.17
2018-01-28T01:45:36.304Z,10.10
2018-01-28T01:50:38.372Z,7.40
2018-01-28T01:55:39.697Z,6.30
2018-01-28T02:00:41.771Z,8.03
2018-01-28T02:05:43.118Z,9.00
2018-01-28T02:10:44.427Z,6.50
2018-01-28T02:15:45.797Z,7.63
2018-01-28T02:20:47.152Z,7.37
2018-01-28T02:25:49.230Z,5.90
2018-01-28T02:30:50.530Z,6.03
2018-01-28T02:35:51.831Z,6.00
2018-01-28T02:40:53.122Z,6.73
2018-01-28T02:45:54.448Z,7.23
2018-01-28T02:50:55.776Z,7.00
2018-01-28T02:55:57.103Z,6.80
2018-01-28T03:00:58.423Z,7.10
2018-01-28T03:05:59.742Z,7.10
2018-01-28T03:11:01.094Z,7.20
2018-01-28T03:16:02.446Z,6.70
2018-01-28T03:21:03.748Z,6.87
2018-01-28T03:26:05.812Z,6.90
2018-01-28T03:31:07.192Z,7.97
2018-01-28T03:36:08.616Z,7.07
2018-01-28T03:41:09.933Z,7.30
2018-01-28T03:46:12.016Z,8.00
2018-01-28T03:51:13.426Z,7.93
2018-01-28T03:56:15.486Z,10.47
2018-01-28T04:01:16.824Z,10.37
2018-01-28T04:06:18.882Z,10.37
2018-01-28T04:11:20.231Z,9.00
2018-01-28T04:16:21.560Z,10.50
2018-01-28T04:21:22.900Z,10.40
2018-01-28T04:26:24.960Z,9.80
2018-01-28T04:31:26.319Z,12.70
2018-01-28T04:36:27.642Z,10.00
2018-01-28T04:41:28.948Z,10.00
2018-01-28T04:46:30.288Z,18.87
2018-01-28T04:51:31.603Z,11.80
2018-01-28T04:56:32.923Z,12.57
2018-01-28T05:01:44.200Z,16.20
2018-01-28T05:06:45.543Z,17.33
2018-01-28T05:11:47.614Z,17.37
2018-01-28T05:16:48.968Z,19.73
2018-01-28T05:21:50.322Z,18.10
2018-01-28T05:26:51.679Z,30.97
2018-01-28T05:31:53.000Z,17.50
2018-01-28T05:36:54.325Z,19.90
2018-01-28T05:41:55.632Z,26.13
2018-01-28T05:46:56.947Z,19.60
2018-01-28T05:51:58.252Z,19.07
2018-01-28T05:56:59.596Z,20.00
2018-01-28T06:02:00.927Z,24.80
2018-01-28T06:07:03.556Z,23.67
2018-01-28T06:12:04.876Z,22.10
2018-01-28T06:17:06.184Z,31.10
2018-01-28T06:22:07.509Z,19.20
2018-01-28T06:27:08.971Z,22.50
2018-01-28T06:32:10.319Z,19.33
2018-01-28T06:37:12.376Z,21.73
2018-01-28T06:42:13.743Z,22.00
2018-01-28T06:47:22.085Z,22.20
2018-01-28T06:52:23.422Z,24.77
2018-01-28T06:57:24.735Z,22.10
2018-01-28T07:02:26.114Z,20.60
2018-01-28T07:07:28.398Z,21.77
2018-01-28T07:12:30.523Z,19.17
2018-01-28T07:17:32.221Z,19.03
2018-01-28T07:22:33.570Z,22.47
2018-01-28T07:27:34.900Z,22.03
2018-01-28T07:32:36.218Z,18.30
2018-01-28T07:37:37.558Z,22.97
2018-01-28T07:42:38.913Z,22.50
2018-01-28T07:47:40.984Z,16.93
2018-01-28T07:52:42.359Z,27.83
2018-01-28T07:57:43.779Z,23.50
2018-01-28T08:02:45.115Z,26.03
2018-01-28T08:07:46.440Z,23.43
2018-01-28T08:12:51.695Z,27.50
2018-01-28T08:17:53.071Z,24.97
2018-01-28T08:22:54.391Z,25.23
2018-01-28T08:28:00.794Z,26.17
2018-01-28T08:33:02.128Z,21.77
2018-01-28T08:38:13.406Z,21.20
2018-01-28T08:43:14.759Z,23.43
2018-01-28T08:48:16.159Z,29.70
2018-01-28T08:53:17.576Z,22.47
2018-01-28T08:58:18.992Z,22.33
2018-01-28T09:03:20.627Z,25.00
2018-01-28T09:08:22.122Z,26.07
2018-01-28T09:13:23.458Z,32.07
2018-01-28T09:18:24.811Z,31.17
2018-01-28T09:23:26.163Z,23.70
2018-01-28T09:28:27.517Z,20.67
2018-01-28T09:33:28.906Z,23.90
2018-01-28T09:38:30.266Z,30.20
2018-01-28T09:43:31.641Z,24.67
2018-01-28T09:48:33.227Z,25.20
2018-01-28T09:53:34.611Z,29.17
2018-01-28T09:58:35.973Z,36.40
2018-01-28T10:03:37.381Z,35.07
2018-01-28T10:08:38.722Z,28.13
2018-01-28T10:13:40.098Z,30.27
2018-01-28T10:18:41.437Z,44.00
2018-01-28T10:23:42.772Z,40.37
2018-01-28T10:28:44.115Z,26.87
2018-01-28T10:33:45.476Z,26.97
2018-01-28T10:38:46.785Z,32.73
2018-01-28T10:43:48.127Z,38.43
2018-01-28T10:48:50.225Z,36.63
2018-01-28T10:53:52.440Z,32.40
2018-01-28T10:58:54.509Z,33.37
2018-01-28T11:03:55.847Z,35.20
2018-01-28T11:08:57.332Z,26.10
2018-01-28T11:13:59.404Z,25.87
2018-01-28T11:19:00.769Z,28.33
2018-01-28T11:24:02.133Z,28.40
2018-01-28T11:29:03.541Z,20.60
2018-01-28T11:34:04.872Z,34.27
2018-01-28T11:39:06.205Z,29.23
2018-01-28T11:44:07.521Z,29.80
2018-01-28T11:49:08.846Z,29.17
2018-01-28T11:54:10.596Z,33.50
2018-01-28T11:59:11.891Z,22.23
2018-01-28T12:04:13.208Z,23.27
2018-01-28T12:09:14.717Z,29.07
2018-01-28T12:14:18.311Z,17.47
2018-01-28T12:19:20.466Z,29.87
2018-01-28T12:24:21.992Z,31.07
2018-01-28T12:29:23.403Z,21.73
2018-01-28T12:34:25.298Z,25.63
2018-01-28T12:39:27.175Z,26.20
2018-01-28T12:44:29.554Z,26.23
2018-01-28T12:49:31.068Z,26.80
2018-01-28T12:54:34.112Z,31.07
2018-01-28T12:59:36.077Z,22.57
2018-01-28T13:04:37.514Z,24.50
2018-01-28T13:09:38.906Z,26.60
2018-01-28T13:14:40.964Z,25.63
2018-01-28T13:19:43.159Z,24.83
2018-01-28T13:24:44.587Z,27.67
2018-01-28T13:29:45.903Z,29.63
2018-01-28T13:34:47.232Z,30.17
2018-01-28T13:39:48.618Z,25.47
2018-01-28T13:44:50.189Z,26.57
2018-01-28T13:49:51.494Z,26.47
2018-01-28T13:54:52.863Z,20.27
2018-01-28T13:59:54.662Z,21.87
2018-01-28T14:04:55.991Z,34.60
2018-01-28T14:09:57.879Z,20.03
2018-01-28T14:14:59.230Z,28.97
2018-01-28T14:20:01.362Z,26.33
2018-01-28T14:25:02.772Z,20.03
2018-01-28T14:30:04.200Z,20.70
2018-01-28T14:35:05.578Z,28.67
2018-01-28T14:40:07.452Z,25.00
2018-01-28T14:45:08.888Z,28.70
2018-01-28T14:50:10.228Z,24.57
2018-01-28T14:55:11.601Z,29.27
2018-01-28T15:00:12.937Z,31.30
2018-01-28T15:05:14.273Z,22.37
2018-01-28T15:10:16.139Z,22.13
2018-01-28T15:15:18.231Z,24.63
2018-01-28T15:20:19.618Z,23.90
2018-01-28T15:25:20.939Z,27.53
2018-01-28T15:30:23.039Z,26.20
2018-01-28T15:35:24.357Z,23.40
2018-01-28T15:40:25.683Z,20.20
2018-01-28T15:45:27.038Z,27.87
2018-01-28T15:50:28.412Z,28.17
2018-01-28T15:55:30.504Z,24.63
2018-01-28T16:00:31.870Z,36.30
2018-01-28T16:05:33.235Z,27.07
2018-01-28T16:10:34.553Z,28.27
2018-01-28T16:15:35.888Z,30.53
2018-01-28T16:20:37.211Z,23.27
2018-01-28T16:25:38.540Z,29.77
2018-01-28T16:30:39.876Z,28.27
2018-01-28T16:35:41.272Z,32.37
2018-01-28T16:40:42.593Z,23.77
2018-01-28T16:45:43.947Z,33.53
2018-01-28T16:50:45.284Z,28.33
2018-01-28T16:55:46.602Z,27.93
2018-01-28T17:00:47.942Z,29.30
2018-01-28T17:05:49.293Z,31.63
2018-01-28T17:10:50.607Z,31.17
2018-01-28T17:15:51.926Z,48.30
2018-01-28T17:20:53.986Z,38.53
2018-01-28T17:25:55.336Z,36.63
2018-01-28T17:30:56.659Z,34.40
2018-01-28T17:35:57.956Z,36.30
2018-01-28T17:40:59.306Z,27.87
2018-01-28T17:46:01.369Z,29.30
2018-01-28T17:51:02.731Z,27.00
2018-01-28T17:56:04.040Z,33.63
2018-01-28T18:01:05.379Z,32.40
2018-01-28T18:06:07.433Z,28.70
2018-01-28T18:11:08.887Z,39.07
2018-01-28T18:16:10.936Z,30.20
2018-01-28T18:21:12.308Z,34.33
2018-01-28T18:26:13.644Z,35.17
2018-01-28T18:31:14.980Z,35.83
2018-01-28T18:36:16.360Z,28.70
2018-01-28T18:41:20.028Z,32.07
2018-01-28T18:46:21.373Z,35.97
2018-01-28T18:51:22.764Z,36.30
2018-01-28T18:56:24.184Z,46.30
2018-01-28T19:01:32.419Z,43.17
2018-01-28T19:06:35.474Z,41.03
2018-01-28T19:11:37.686Z,50.40
2018-01-28T19:16:40.103Z,46.03
2018-01-28T19:21:41.450Z,52.60
2018-01-28T19:26:44.440Z,45.07
2018-01-28T19:31:46.118Z,53.57
2018-01-28T19:36:47.468Z,44.57
2018-01-28T19:41:49.607Z,56.73
2018-01-28T19:46:51.726Z,58.27
2018-01-28T19:51:54.332Z,54.43
2018-01-28T19:56:56.159Z,52.50
2018-01-28T20:01:57.920Z,47.80
2018-01-28T20:06:59.673Z,59.40
2018-01-28T20:12:01.043Z,55.47
2018-01-28T20:17:02.390Z,47.57
2018-01-28T20:22:04.945Z,52.90
2018-01-28T20:27:06.316Z,51.47
2018-01-28T20:32:07.674Z,47.80
2018-01-28T20:37:09.028Z,40.97
2018-01-28T20:42:10.383Z,49.93
2018-01-28T20:47:11.736Z,43.00
2018-01-28T20:52:13.061Z,40.53
2018-01-28T20:57:15.175Z,40.87
2018-01-28T21:02:16.563Z,34.30
2018-01-28T21:07:17.983Z,37.43
2018-01-28T21:12:19.361Z,37.30
2018-01-28T21:17:20.734Z,39.53
2018-01-28T21:22:22.902Z,39.03
2018-01-28T21:27:24.243Z,42.83
2018-01-28T21:32:25.596Z,39.43
2018-01-28T21:37:26.944Z,35.00
2018-01-28T21:42:28.335Z,36.90
2018-01-28T21:47:29.704Z,38.10
2018-01-28T21:52:31.060Z,35.47
2018-01-28T21:57:32.683Z,27.87
2018-01-28T22:02:34.202Z,27.87
2018-01-28T22:07:35.908Z,26.20
2018-01-28T22:12:37.448Z,22.23
2018-01-28T22:17:38.934Z,26.47
2018-01-28T22:22:40.354Z,23.80
2018-01-28T22:27:41.709Z,22.83
2018-01-28T22:32:43.024Z,19.43
2018-01-28T22:37:44.475Z,22.90
2018-01-28T22:42:45.917Z,18.37
2018-01-28T22:47:47.310Z,18.17
2018-01-28T22:52:48.949Z,18.33
2018-01-28T22:57:50.293Z,18.33
2018-01-28T23:02:51.631Z,18.73
2018-01-28T23:07:53.150Z,19.53
2018-01-28T23:12:55.369Z,23.07
2018-01-28T23:17:56.681Z,29.17
2018-01-28T23:22:57.999Z,23.70
2018-01-28T23:27:59.323Z,24.83
2018-01-28T23:33:00.663Z,30.33
2018-01-28T23:38:02.035Z,30.27
2018-01-28T23:43:03.384Z,33.30
2018-01-28T23:48:04.731Z,37.83
2018-01-28T23:53:06.042Z,35.70
2018-01-28T23:58:07.407Z,35.00
